createdAt,value
2023-03-31T00:00:58.309Z,-1.12
2023-03-31T00:03:25.577Z,-1.23
2023-03-31T00:06:00.005Z,-1.25
2023-03-31T00:08:30.684Z,-1.24
2023-03-31T00:11:02.220Z,-1.25
2023-03-31T00:13:30.495Z,-1.34
2023-03-31T00:16:01.903Z,-1.38
2023-03-31T00:18:30.131Z,-1.35
2023-03-31T00:21:29.989Z,-1.57
2023-03-31T00:24:02.744Z,-1.54
2023-03-31T00:26:30.261Z,-1.65
2023-03-31T00:28:57.910Z,-1.66
2023-03-31T00:31:25.070Z,-1.76
2023-03-31T00:33:54.667Z,-1.81
2023-03-31T00:36:27.392Z,-1.97
2023-03-31T00:39:02.636Z,-2.12
2023-03-31T00:41:30.689Z,-2.20
2023-03-31T00:44:27.829Z,-2.42
2023-03-31T00:47:02.426Z,-2.37
2023-03-31T00:49:40.754Z,-2.63
2023-03-31T00:52:10.971Z,-2.47
2023-03-31T00:54:38.531Z,-2.65
2023-03-31T00:57:06.893Z,-2.49
2023-03-31T00:59:38.423Z,-2.73
2023-03-31T01:02:05.864Z,-2.64
2023-03-31T01:04:40.328Z,-2.49
2023-03-31T01:07:19.661Z,-2.51
2023-03-31T01:09:47.624Z,-2.62
2023-03-31T01:12:17.465Z,-2.55
2023-03-31T01:14:44.507Z,-2.68
2023-03-31T01:17:19.441Z,-2.73
2023-03-31T01:20:18.312Z,-2.46
2023-03-31T01:23:05.596Z,-2.45
2023-03-31T01:25:54.679Z,-2.48
2023-03-31T01:28:44.620Z,-2.51
2023-03-31T01:31:30.497Z,-2.51
2023-03-31T01:34:15.558Z,-2.65
2023-03-31T01:37:09.567Z,-2.57
2023-03-31T01:39:55.104Z,-2.64
2023-03-31T01:42:32.645Z,-2.68
2023-03-31T01:45:12.489Z,-2.78
2023-03-31T01:47:59.532Z,-2.76
2023-03-31T01:50:47.254Z,-2.73
2023-03-31T01:53:31.700Z,-2.62
2023-03-31T01:56:16.160Z,-2.58
2023-03-31T01:58:47.926Z,-2.50
2023-03-31T02:01:38.108Z,-2.37
2023-03-31T02:04:31.385Z,-2.24
2023-03-31T02:07:04.186Z,-2.34
2023-03-31T02:09:35.158Z,-2.21
2023-03-31T02:12:06.378Z,-2.22
2023-03-31T02:14:34.945Z,-2.25
2023-03-31T02:17:03.968Z,-2.27
2023-03-31T02:19:34.855Z,-2.35
2023-03-31T02:22:03.666Z,-2.44
2023-03-31T02:24:31.661Z,-2.43
2023-03-31T02:27:06.813Z,-2.46
2023-03-31T02:29:34.433Z,-2.41
2023-03-31T02:32:16.985Z,-2.53
2023-03-31T02:34:44.002Z,-2.71
2023-03-31T02:37:11.257Z,-2.78
2023-03-31T02:39:40.747Z,-2.68
2023-03-31T02:42:09.010Z,-2.70
2023-03-31T02:44:40.292Z,-2.67
2023-03-31T02:47:13.731Z,-2.54
2023-03-31T02:49:57.093Z,-2.59
2023-03-31T02:52:34.897Z,-2.50
2023-03-31T02:55:23.657Z,-2.63
2023-03-31T02:58:18.464Z,-2.59
2023-03-31T03:00:53.044Z,-2.70
2023-03-31T03:03:31.610Z,-2.75
2023-03-31T03:06:30.770Z,-2.74
2023-03-31T03:09:13.222Z,-2.72
2023-03-31T03:12:16.097Z,-2.73
2023-03-31T03:14:47.479Z,-2.72
2023-03-31T03:17:39.632Z,-2.68
2023-03-31T03:20:09.417Z,-2.78
2023-03-31T03:22:39.800Z,-2.80
2023-03-31T03:25:09.596Z,-2.87
2023-03-31T03:27:37.549Z,-2.83
2023-03-31T03:30:06.978Z,-2.87
2023-03-31T03:32:34.142Z,-3.02
2023-03-31T03:35:02.333Z,-2.93
2023-03-31T03:37:29.869Z,-3.02
2023-03-31T03:39:56.928Z,-2.96
2023-03-31T03:42:24.276Z,-2.97
2023-03-31T03:44:53.626Z,-3.05
2023-03-31T03:47:20.541Z,-2.93
2023-03-31T03:49:49.407Z,-3.00
2023-03-31T03:52:16.902Z,-2.91
2023-03-31T03:54:44.020Z,-2.89
2023-03-31T03:57:11.613Z,-2.94
2023-03-31T03:59:39.026Z,-2.99
2023-03-31T04:02:07.215Z,-2.82
2023-03-31T04:04:34.318Z,-2.86
2023-03-31T04:07:01.582Z,-2.79
2023-03-31T04:09:29.707Z,-2.94
2023-03-31T04:11:56.872Z,-2.77
2023-03-31T04:14:25.459Z,-2.85
2023-03-31T04:16:52.493Z,-2.82
2023-03-31T04:19:32.094Z,-2.94
2023-03-31T04:27:56.700Z,-2.71
2023-03-31T04:30:31.259Z,-2.96
2023-03-31T04:33:01.196Z,-2.77
2023-03-31T04:36:00.928Z,-2.79
2023-03-31T04:38:33.706Z,-2.68
2023-03-31T04:41:04.629Z,-2.42
2023-03-31T04:43:34.947Z,-2.40
2023-03-31T04:46:02.057Z,-2.35
2023-03-31T04:48:29.499Z,-2.23
2023-03-31T04:50:56.613Z,-2.15
2023-03-31T04:53:24.132Z,-2.27
2023-03-31T04:55:51.171Z,-2.28
2023-03-31T04:58:25.345Z,-2.09
2023-03-31T05:00:55.921Z,-2.06
2023-03-31T05:03:26.170Z,-1.81
2023-03-31T05:05:54.553Z,-1.68
2023-03-31T05:08:21.871Z,-1.54
2023-03-31T05:10:53.216Z,-1.42
2023-03-31T05:13:22.024Z,-1.36
2023-03-31T05:15:51.212Z,-1.37
2023-03-31T05:18:18.888Z,-1.12
2023-03-31T05:20:46.786Z,-1.17
2023-03-31T05:23:14.816Z,-1.13
2023-03-31T05:25:42.763Z,-0.98
2023-03-31T05:28:12.925Z,-1.04
2023-03-31T05:30:40.099Z,-0.90
2023-03-31T05:33:07.318Z,-0.81
2023-03-31T05:35:34.632Z,-0.80
2023-03-31T05:38:01.956Z,-0.83
2023-03-31T05:40:29.105Z,-0.77
2023-03-31T05:42:57.279Z,-0.74
2023-03-31T05:45:24.383Z,-0.58
2023-03-31T05:47:51.801Z,-0.53
2023-03-31T05:50:19.079Z,-0.53
2023-03-31T05:52:46.174Z,-0.59
2023-03-31T05:55:13.425Z,-0.55
2023-03-31T05:57:40.573Z,-0.45
2023-03-31T06:00:10.700Z,-0.41
2023-03-31T06:02:38.045Z,-0.36
2023-03-31T06:05:05.687Z,-0.21
2023-03-31T06:07:32.724Z,-0.15
2023-03-31T06:09:59.978Z,-0.25
2023-03-31T06:12:26.920Z,-0.14
2023-03-31T06:14:54.198Z,-0.16
2023-03-31T06:17:21.271Z,0.14
2023-03-31T06:19:48.280Z,0.29
2023-03-31T06:22:15.218Z,0.45
2023-03-31T06:24:42.432Z,0.45
2023-03-31T06:27:10.628Z,0.47
2023-03-31T06:29:38.416Z,0.56
2023-03-31T06:34:48.487Z,0.57
2023-03-31T06:37:15.901Z,0.59
2023-03-31T06:39:44.728Z,0.76
2023-03-31T06:42:12.119Z,0.82
2023-03-31T06:44:41.082Z,0.96
2023-03-31T06:47:08.116Z,0.97
2023-03-31T06:49:42.276Z,0.93
2023-03-31T06:52:09.296Z,0.63
2023-03-31T06:54:36.282Z,0.60
2023-03-31T06:57:03.422Z,0.84
2023-03-31T06:59:30.473Z,0.76
2023-03-31T07:01:57.620Z,0.85
2023-03-31T07:04:24.667Z,0.81
2023-03-31T07:06:51.706Z,1.01
2023-03-31T07:09:18.953Z,1.00
2023-03-31T07:11:46.105Z,1.09
2023-03-31T07:14:13.056Z,1.07
2023-03-31T07:16:40.068Z,0.99
2023-03-31T07:19:08.232Z,1.06
2023-03-31T07:21:35.151Z,1.12
2023-03-31T07:24:02.104Z,1.11
2023-03-31T07:26:29.126Z,1.25
2023-03-31T07:28:57.571Z,1.06
2023-03-31T07:31:26.106Z,1.16
2023-03-31T07:33:55.240Z,1.17
2023-03-31T07:36:24.260Z,1.06
2023-03-31T07:38:51.878Z,1.17
2023-03-31T07:41:21.082Z,1.19
2023-03-31T07:43:49.264Z,1.07
2023-03-31T07:46:23.367Z,1.32
2023-03-31T07:48:50.789Z,1.35
2023-03-31T07:51:20.875Z,1.40
2023-03-31T07:53:49.617Z,1.42
2023-03-31T07:56:17.424Z,1.17
2023-03-31T07:58:47.150Z,0.93
2023-03-31T08:01:19.182Z,1.00
2023-03-31T08:03:47.620Z,1.11
2023-03-31T08:06:23.862Z,1.22
2023-03-31T08:08:51.602Z,1.25
2023-03-31T08:11:19.775Z,1.13
2023-03-31T08:13:47.193Z,1.07
2023-03-31T08:16:16.639Z,1.34
2023-03-31T08:18:43.809Z,1.53
2023-03-31T08:21:11.091Z,1.45
2023-03-31T08:23:38.220Z,1.34
2023-03-31T08:26:16.405Z,1.21
2023-03-31T08:28:46.375Z,1.19
2023-03-31T08:31:16.529Z,1.20
2023-03-31T08:33:43.765Z,1.22
2023-03-31T08:36:11.429Z,1.37
2023-03-31T08:38:41.924Z,1.19
2023-03-31T08:41:27.068Z,1.37
2023-03-31T08:43:56.656Z,1.39
2023-03-31T08:46:23.844Z,1.46
2023-03-31T08:48:55.108Z,1.37
2023-03-31T08:51:33.333Z,1.58
2023-03-31T08:54:04.002Z,1.80
2023-03-31T08:56:38.265Z,1.60
2023-03-31T08:59:07.127Z,1.43
2023-03-31T09:01:58.459Z,1.53
2023-03-31T09:04:56.334Z,1.62
2023-03-31T09:07:52.749Z,1.81
2023-03-31T09:10:19.851Z,1.93
2023-03-31T09:13:31.636Z,1.88
2023-03-31T09:16:24.476Z,1.63
2023-03-31T09:18:54.667Z,1.56
2023-03-31T09:21:28.167Z,1.59
2023-03-31T09:24:04.187Z,1.42
2023-03-31T09:26:38.167Z,1.47
2023-03-31T09:29:10.619Z,1.50
2023-03-31T09:31:39.004Z,1.71
2023-03-31T09:34:14.582Z,1.78
2023-03-31T09:36:42.442Z,1.54
2023-03-31T09:39:17.887Z,1.79
2023-03-31T09:41:47.742Z,1.83
2023-03-31T09:44:39.318Z,1.99
2023-03-31T09:47:39.178Z,2.06
2023-03-31T09:50:08.116Z,2.09
2023-03-31T09:52:41.149Z,2.16
2023-03-31T09:55:38.393Z,2.07
2023-03-31T09:58:08.323Z,2.12
2023-03-31T10:00:35.704Z,2.13
2023-03-31T10:03:07.822Z,1.94
2023-03-31T10:05:43.084Z,1.99
2023-03-31T10:08:26.122Z,2.00
2023-03-31T10:10:58.846Z,1.90
2023-03-31T10:13:29.503Z,1.84
2023-03-31T10:16:09.109Z,1.88
2023-03-31T10:18:41.978Z,2.00
2023-03-31T10:21:27.631Z,1.90
2023-03-31T10:23:55.632Z,1.83
2023-03-31T10:26:29.303Z,1.87
2023-03-31T10:28:56.490Z,1.92
2023-03-31T10:31:27.518Z,2.01
2023-03-31T10:33:55.710Z,1.98
2023-03-31T10:36:28.120Z,2.19
2023-03-31T10:38:56.084Z,2.24
2023-03-31T10:41:26.472Z,2.06
2023-03-31T10:43:55.887Z,2.25
2023-03-31T10:46:44.394Z,2.30
2023-03-31T10:49:27.886Z,2.13
2023-03-31T10:51:57.796Z,2.06
2023-03-31T10:54:25.532Z,1.92
2023-03-31T10:56:58.726Z,1.90
2023-03-31T10:59:38.120Z,2.03
2023-03-31T11:02:11.466Z,1.92
2023-03-31T11:05:05.985Z,1.86
2023-03-31T11:07:39.100Z,1.85
2023-03-31T11:10:21.304Z,1.81
2023-03-31T11:13:00.603Z,1.92
2023-03-31T11:15:42.708Z,1.94
2023-03-31T11:18:33.753Z,1.86
2023-03-31T11:21:26.600Z,2.02
2023-03-31T11:24:10.208Z,2.01
2023-03-31T11:26:57.504Z,2.09
2023-03-31T11:29:36.221Z,2.10
2023-03-31T11:32:34.218Z,2.15
2023-03-31T11:35:33.120Z,2.16
2023-03-31T11:38:24.785Z,2.12
2023-03-31T11:41:00.138Z,2.17
2023-03-31T11:43:51.912Z,2.18
2023-03-31T11:46:48.241Z,2.27
2023-03-31T11:49:38.405Z,2.13
2023-03-31T11:52:19.617Z,2.19
2023-03-31T11:55:03.084Z,2.11
2023-03-31T11:57:38.526Z,2.03
2023-03-31T12:00:19.224Z,2.15
2023-03-31T12:03:08.284Z,2.13
2023-03-31T12:05:45.052Z,2.14
2023-03-31T12:08:19.673Z,2.00
2023-03-31T12:11:28.914Z,2.20
2023-03-31T12:14:17.753Z,2.16
2023-03-31T12:16:58.461Z,2.12
2023-03-31T12:19:34.802Z,2.13
2023-03-31T12:22:12.684Z,2.08
2023-03-31T12:24:39.703Z,2.20
2023-03-31T12:27:18.762Z,2.19
2023-03-31T12:29:51.943Z,2.16
2023-03-31T12:32:22.205Z,2.11
2023-03-31T12:35:04.074Z,2.02
2023-03-31T12:38:08.569Z,2.03
2023-03-31T12:41:07.747Z,2.03
2023-03-31T12:44:01.724Z,1.97
2023-03-31T12:47:11.341Z,1.98
2023-03-31T12:50:00.888Z,1.92
2023-03-31T12:52:48.290Z,2.00
2023-03-31T12:55:41.178Z,2.01
2023-03-31T12:58:32.623Z,1.99
2023-03-31T13:01:17.564Z,1.93
2023-03-31T13:03:55.268Z,1.95
2023-03-31T13:06:29.063Z,1.91
2023-03-31T13:09:11.570Z,1.89
2023-03-31T13:11:43.264Z,1.79
2023-03-31T13:14:24.737Z,1.87
2023-03-31T13:16:55.567Z,1.88
2023-03-31T13:19:33.274Z,1.86
2023-03-31T13:22:02.338Z,1.92
2023-03-31T13:24:31.334Z,1.90
2023-03-31T13:27:01.152Z,1.86
2023-03-31T13:29:43.854Z,1.91
2023-03-31T13:32:20.981Z,1.88
2023-03-31T13:34:59.359Z,1.78
2023-03-31T13:37:47.975Z,1.67
2023-03-31T13:40:41.314Z,1.65
2023-03-31T13:43:28.231Z,1.69
2023-03-31T13:46:04.263Z,1.70
2023-03-31T13:48:40.539Z,1.67
2023-03-31T13:51:14.481Z,1.71
2023-03-31T13:54:06.164Z,1.71
2023-03-31T13:57:14.381Z,1.68
2023-03-31T14:00:17.223Z,1.64
2023-03-31T14:03:02.601Z,1.59
2023-03-31T14:05:47.453Z,1.54
2023-03-31T14:08:27.426Z,1.40
2023-03-31T14:10:54.993Z,1.44
2023-03-31T14:13:25.878Z,1.46
2023-03-31T14:16:02.497Z,1.45
2023-03-31T14:18:33.987Z,1.46
2023-03-31T14:21:29.287Z,1.59
2023-03-31T14:24:23.671Z,1.55
2023-03-31T14:26:59.074Z,1.43
2023-03-31T14:29:46.086Z,1.53
2023-03-31T14:32:33.498Z,1.50
2023-03-31T14:38:29.821Z,1.49
2023-03-31T14:41:05.455Z,1.43
2023-03-31T14:43:37.305Z,1.27
2023-03-31T14:46:09.096Z,1.43
2023-03-31T14:48:47.555Z,1.45
2023-03-31T14:51:28.836Z,1.37
2023-03-31T14:57:03.166Z,1.21
2023-03-31T14:59:33.899Z,1.25
2023-03-31T15:02:02.942Z,1.34
2023-03-31T15:04:41.998Z,1.11
2023-03-31T15:07:10.266Z,1.17
2023-03-31T15:09:37.899Z,1.24
2023-03-31T15:12:15.149Z,1.32
2023-03-31T15:15:04.156Z,1.13
2023-03-31T15:17:37.881Z,1.21
2023-03-31T15:20:26.060Z,1.29
2023-03-31T15:22:53.760Z,1.21
2023-03-31T15:25:22.482Z,1.21
2023-03-31T15:28:03.067Z,1.07
2023-03-31T15:30:31.118Z,1.08
2023-03-31T15:35:47.041Z,1.10
2023-03-31T15:38:19.750Z,1.22
2023-03-31T15:40:53.763Z,0.97
2023-03-31T15:43:32.427Z,1.04
2023-03-31T15:46:02.951Z,1.16
2023-03-31T15:48:34.325Z,1.10
2023-03-31T15:51:02.806Z,1.10
2023-03-31T15:53:37.953Z,1.08
2023-03-31T15:56:05.454Z,0.92
2023-03-31T15:58:55.478Z,1.11
2023-03-31T16:01:23.568Z,0.98
2023-03-31T16:03:53.872Z,0.97
2023-03-31T16:06:24.186Z,1.08
2023-03-31T16:09:09.099Z,1.02
2023-03-31T16:11:49.411Z,1.06
2023-03-31T16:14:24.141Z,1.08
2023-03-31T16:16:57.379Z,1.04
2023-03-31T16:19:25.592Z,0.93
2023-03-31T16:21:55.187Z,1.06
2023-03-31T16:24:30.284Z,0.98
2023-03-31T16:27:08.954Z,0.99
2023-03-31T16:29:37.752Z,1.07
2023-03-31T16:32:13.415Z,1.01
2023-03-31T16:35:02.797Z,1.05
2023-03-31T16:37:33.796Z,0.98
2023-03-31T16:40:01.631Z,0.96
2023-03-31T16:42:29.041Z,0.79
2023-03-31T16:45:13.138Z,0.92
2023-03-31T16:47:54.816Z,0.74
2023-03-31T16:50:25.148Z,0.78
2023-03-31T16:53:22.079Z,0.80
2023-03-31T16:55:52.214Z,0.78
2023-03-31T16:58:51.891Z,0.70
2023-03-31T17:01:22.935Z,0.69
2023-03-31T17:06:43.427Z,0.62
2023-03-31T17:12:00.126Z,0.57
2023-03-31T17:14:38.319Z,0.73
2023-03-31T17:17:05.627Z,0.66
2023-03-31T17:19:34.906Z,0.61
2023-03-31T17:22:04.519Z,0.57
2023-03-31T17:24:34.439Z,0.68
2023-03-31T17:27:16.833Z,0.69
2023-03-31T17:29:44.243Z,0.69
2023-03-31T17:32:14.996Z,0.60
2023-03-31T17:34:42.830Z,0.75
2023-03-31T17:37:11.163Z,0.67
2023-03-31T17:39:38.859Z,0.77
2023-03-31T17:42:10.466Z,0.80
2023-03-31T17:44:40.967Z,0.81
2023-03-31T17:47:21.599Z,0.79
2023-03-31T17:49:59.969Z,0.77
2023-03-31T17:52:45.696Z,0.64
2023-03-31T17:55:16.124Z,0.63
2023-03-31T17:57:46.369Z,0.82
2023-03-31T18:00:21.598Z,0.82
2023-03-31T18:02:51.352Z,0.59
2023-03-31T18:05:22.528Z,0.73
2023-03-31T18:07:52.296Z,0.76
2023-03-31T18:10:22.375Z,0.62
2023-03-31T18:12:52.028Z,0.81
2023-03-31T18:15:22.599Z,0.73
2023-03-31T18:17:50.771Z,0.71
2023-03-31T18:20:29.304Z,0.62
2023-03-31T18:22:59.248Z,0.56
2023-03-31T18:25:33.414Z,0.60
2023-03-31T18:28:04.294Z,0.65
2023-03-31T18:34:45.818Z,0.56
2023-03-31T18:37:36.698Z,0.64
2023-03-31T18:40:08.008Z,0.69
2023-03-31T18:42:46.064Z,0.66
2023-03-31T18:45:18.230Z,0.82
2023-03-31T18:47:51.034Z,0.70
2023-03-31T18:50:33.484Z,0.75
2023-03-31T18:53:19.534Z,0.66
2023-03-31T18:56:13.864Z,0.73
2023-03-31T18:58:52.328Z,0.78
2023-03-31T19:01:29.650Z,0.79
2023-03-31T19:07:45.722Z,0.64
2023-03-31T19:10:14.601Z,0.75
2023-03-31T19:12:49.338Z,0.68
2023-03-31T19:15:16.697Z,0.78
2023-03-31T19:17:48.324Z,0.72
2023-03-31T19:20:21.723Z,0.60
2023-03-31T19:22:52.373Z,0.63
2023-03-31T19:25:24.638Z,0.73
2023-03-31T19:28:02.128Z,0.54
2023-03-31T19:30:29.395Z,0.68
2023-03-31T19:32:56.942Z,0.67
2023-03-31T19:35:29.599Z,0.68
2023-03-31T19:37:57.796Z,0.56
2023-03-31T19:40:33.680Z,0.52
2023-03-31T19:43:27.222Z,0.55
2023-03-31T19:45:57.741Z,0.71
2023-03-31T19:48:28.336Z,0.61
2023-03-31T19:51:04.482Z,0.67
2023-03-31T19:53:43.787Z,0.58
2023-03-31T19:56:19.790Z,0.61
2023-03-31T19:58:48.400Z,0.62
2023-03-31T20:01:19.418Z,0.52
2023-03-31T20:03:47.052Z,0.61
2023-03-31T20:06:15.244Z,0.48
2023-03-31T20:08:44.952Z,0.57
2023-03-31T20:11:14.359Z,0.65
2023-03-31T20:13:42.925Z,0.60
2023-03-31T20:16:20.552Z,0.57
2023-03-31T20:19:02.388Z,0.67
2023-03-31T20:21:40.933Z,0.57
2023-03-31T20:24:08.657Z,0.49
2023-03-31T20:26:35.823Z,0.59
2023-03-31T20:29:03.934Z,0.57
2023-03-31T20:31:37.632Z,0.58
2023-03-31T20:34:06.823Z,0.53
2023-03-31T20:36:33.985Z,0.60
2023-03-31T20:39:05.724Z,0.57
2023-03-31T20:41:33.904Z,0.53
2023-03-31T20:44:01.743Z,0.59
2023-03-31T20:46:29.677Z,0.59
2023-03-31T20:48:58.209Z,0.59
2023-03-31T20:51:30.831Z,0.48
2023-03-31T20:54:02.073Z,0.44
2023-03-31T20:56:31.962Z,0.34
2023-03-31T20:58:59.908Z,0.42
2023-03-31T21:01:30.162Z,0.48
2023-03-31T21:04:02.219Z,0.48
2023-03-31T21:06:32.800Z,0.45
2023-03-31T21:09:00.146Z,0.56
2023-03-31T21:11:27.700Z,0.47
2023-03-31T21:13:54.894Z,0.35
2023-03-31T21:16:22.563Z,0.50
2023-03-31T21:18:55.125Z,0.40
2023-03-31T21:21:24.630Z,0.25
2023-03-31T21:23:52.360Z,0.36
2023-03-31T21:26:20.887Z,0.19
2023-03-31T21:28:50.078Z,0.19
2023-03-31T21:31:18.916Z,0.16
2023-03-31T21:33:47.153Z,0.13
2023-03-31T21:36:16.577Z,0.16
2023-03-31T21:38:44.826Z,0.20
2023-03-31T21:41:19.376Z,0.20
2023-03-31T21:43:47.237Z,0.15
2023-03-31T21:46:24.409Z,0.04
2023-03-31T21:48:51.578Z,0.04
2023-03-31T21:51:22.000Z,0.06
2023-03-31T21:53:50.181Z,-0.01
2023-03-31T21:56:17.734Z,-0.14
2023-03-31T21:58:44.809Z,-0.28
2023-03-31T22:01:12.326Z,-0.29
2023-03-31T22:03:41.361Z,-0.20
2023-03-31T22:06:10.006Z,-0.24
2023-03-31T22:08:39.079Z,-0.25
2023-03-31T22:11:07.684Z,-0.39
2023-03-31T22:13:36.537Z,-0.40
2023-03-31T22:16:05.104Z,-0.40
2023-03-31T22:18:32.415Z,-0.35
2023-03-31T22:21:01.020Z,-0.35
2023-03-31T22:23:28.048Z,-0.34
2023-03-31T22:25:55.613Z,-0.34
2023-03-31T22:28:22.614Z,-0.36
2023-03-31T22:30:49.618Z,-0.36
2023-03-31T22:33:16.827Z,-0.37
2023-03-31T22:35:44.364Z,-0.35
2023-03-31T22:38:14.014Z,-0.35
2023-03-31T22:40:41.473Z,-0.38
2023-03-31T22:43:08.736Z,-0.39
2023-03-31T22:45:38.006Z,-0.40
2023-03-31T22:48:07.292Z,-0.45
2023-03-31T22:50:34.490Z,-0.46
2023-03-31T22:53:04.420Z,-0.47
2023-03-31T22:55:33.836Z,-0.49
2023-03-31T22:58:01.544Z,-0.51
2023-03-31T23:01:01.233Z,-0.47
2023-03-31T23:03:28.431Z,-0.48
2023-03-31T23:05:55.373Z,-0.47
2023-03-31T23:08:23.054Z,-0.44
2023-03-31T23:11:00.045Z,-0.42
2023-03-31T23:13:28.375Z,-0.47
2023-03-31T23:15:58.412Z,-0.46
2023-03-31T23:18:25.777Z,-0.46
2023-03-31T23:20:52.759Z,-0.43
2023-03-31T23:23:19.741Z,-0.43
2023-03-31T23:25:46.676Z,-0.44
2023-03-31T23:28:13.807Z,-0.41
2023-03-31T23:30:41.376Z,-0.39
2023-03-31T23:33:09.727Z,-0.40
2023-03-31T23:35:36.850Z,-0.39
2023-03-31T23:38:05.062Z,-0.45
2023-03-31T23:40:31.993Z,-0.42
2023-03-31T23:42:59.022Z,-0.40
2023-03-31T23:45:25.857Z,-0.42
2023-03-31T23:47:52.900Z,-0.45
2023-03-31T23:50:19.959Z,-0.41
2023-03-31T23:52:47.115Z,-0.39
2023-03-31T23:55:14.055Z,-0.40
2023-03-31T23:57:41.536Z,-0.39
